sensor_id;sensor_type;location;lat;lon;timestamp;temperature;humidity
46029;DHT22;31763;48.180;7.904;2023-03-01T00:01:28;-1.60;99.90
46029;DHT22;31763;48.180;7.904;2023-03-01T00:03:57;-1.50;99.90
46029;DHT22;31763;48.180;7.904;2023-03-01T00:06:25;-1.50;99.90
46029;DHT22;31763;48.180;7.904;2023-03-01T00:08:52;-1.50;99.90
46029;DHT22;31763;48.180;7.904;2023-03-01T00:11:21;-1.60;99.90
46029;DHT22;31763;48.180;7.904;2023-03-01T00:13:51;-1.60;99.90
46029;DHT22;31763;48.180;7.904;2023-03-01T00:16:23;-1.50;99.90
46029;DHT22;31763;48.180;7.904;2023-03-01T00:18:58;-1.50;99.90
46029;DHT22;31763;48.180;7.904;2023-03-01T00:21:26;-1.70;99.90
46029;DHT22;31763;48.180;7.904;2023-03-01T00:23:53;-1.70;99.90
46029;DHT22;31763;48.180;7.904;2023-03-01T00:26:22;-1.60;99.90
46029;DHT22;31763;48.180;7.904;2023-03-01T00:28:50;-1.50;99.90
46029;DHT22;31763;48.180;7.904;2023-03-01T00:31:19;-1.50;99.90
46029;DHT22;31763;48.180;7.904;2023-03-01T00:33:48;-1.40;99.90
46029;DHT22;31763;48.180;7.904;2023-03-01T00:36:15;-1.50;99.90
46029;DHT22;31763;48.180;7.904;2023-03-01T00:38:44;-1.70;99.90
46029;DHT22;31763;48.180;7.904;2023-03-01T00:41:14;-1.70;99.90
46029;DHT22;31763;48.180;7.904;2023-03-01T00:43:43;-1.70;99.90
46029;DHT22;31763;48.180;7.904;2023-03-01T00:46:15;-1.80;99.90
46029;DHT22;31763;48.180;7.904;2023-03-01T00:48:44;-1.80;99.90
46029;DHT22;31763;48.180;7.904;2023-03-01T00:51:17;-1.60;99.90
46029;DHT22;31763;48.180;7.904;2023-03-01T00:53:45;-2.00;99.90
46029;DHT22;31763;48.180;7.904;2023-03-01T00:56:14;-2.00;99.90
46029;DHT22;31763;48.180;7.904;2023-03-01T00:58:41;-1.90;99.90
46029;DHT22;31763;48.180;7.904;2023-03-01T01:01:17;-2.00;99.90
46029;DHT22;31763;48.180;7.904;2023-03-01T01:03:54;-2.20;99.90
46029;DHT22;31763;48.180;7.904;2023-03-01T01:06:28;-2.40;99.90
46029;DHT22;31763;48.180;7.904;2023-03-01T01:08:58;-2.40;99.90
46029;DHT22;31763;48.180;7.904;2023-03-01T01:11:27;-2.50;99.90
46029;DHT22;31763;48.180;7.904;2023-03-01T01:13:55;-2.30;99.90
46029;DHT22;31763;48.180;7.904;2023-03-01T01:16:24;-2.40;99.90
46029;DHT22;31763;48.180;7.904;2023-03-01T01:18:52;-2.40;99.90
46029;DHT22;31763;48.180;7.904;2023-03-01T01:21:22;-2.40;99.90
46029;DHT22;31763;48.180;7.904;2023-03-01T01:23:50;-2.40;99.90
46029;DHT22;31763;48.180;7.904;2023-03-01T01:26:23;-2.30;99.90
46029;DHT22;31763;48.180;7.904;2023-03-01T01:28:52;-2.40;99.90
46029;DHT22;31763;48.180;7.904;2023-03-01T01:31:21;-2.40;99.90
46029;DHT22;31763;48.180;7.904;2023-03-01T01:33:51;-2.30;99.90
46029;DHT22;31763;48.180;7.904;2023-03-01T01:36:19;-2.40;99.90
46029;DHT22;31763;48.180;7.904;2023-03-01T01:38:45;-2.50;99.90
46029;DHT22;31763;48.180;7.904;2023-03-01T01:41:13;-2.50;99.90
46029;DHT22;31763;48.180;7.904;2023-03-01T01:43:46;-2.50;99.90
46029;DHT22;31763;48.180;7.904;2023-03-01T01:49:03;-2.30;99.90
46029;DHT22;31763;48.180;7.904;2023-03-01T01:51:35;-2.20;99.90
46029;DHT22;31763;48.180;7.904;2023-03-01T01:54:16;-2.20;99.90
46029;DHT22;31763;48.180;7.904;2023-03-01T01:56:58;-2.30;99.90
46029;DHT22;31763;48.180;7.904;2023-03-01T01:59:30;-2.20;99.90
46029;DHT22;31763;48.180;7.904;2023-03-01T02:02:00;-2.20;99.90
46029;DHT22;31763;48.180;7.904;2023-03-01T02:04:31;-2.10;99.90
46029;DHT22;31763;48.180;7.904;2023-03-01T02:07:03;-1.90;99.90
46029;DHT22;31763;48.180;7.904;2023-03-01T02:09:33;-1.90;99.90
46029;DHT22;31763;48.180;7.904;2023-03-01T02:12:01;-2.30;99.90
46029;DHT22;31763;48.180;7.904;2023-03-01T02:14:29;-2.10;99.90
46029;DHT22;31763;48.180;7.904;2023-03-01T02:16:56;-2.10;99.90
46029;DHT22;31763;48.180;7.904;2023-03-01T02:19:53;-2.10;99.90
46029;DHT22;31763;48.180;7.904;2023-03-01T02:22:35;-2.40;99.90
46029;DHT22;31763;48.180;7.904;2023-03-01T02:30:32;-2.60;99.90
46029;DHT22;31763;48.180;7.904;2023-03-01T02:33:04;-2.40;99.90
46029;DHT22;31763;48.180;7.904;2023-03-01T02:35:55;-2.40;99.90
46029;DHT22;31763;48.180;7.904;2023-03-01T02:38:37;-2.40;99.90
46029;DHT22;31763;48.180;7.904;2023-03-01T02:41:04;-2.60;99.90
46029;DHT22;31763;48.180;7.904;2023-03-01T02:43:33;-2.60;99.90
46029;DHT22;31763;48.180;7.904;2023-03-01T02:46:05;-2.60;99.90
46029;DHT22;31763;48.180;7.904;2023-03-01T02:48:50;-2.50;99.90
46029;DHT22;31763;48.180;7.904;2023-03-01T02:51:44;-2.70;99.90
46029;DHT22;31763;48.180;7.904;2023-03-01T02:54:41;-2.60;99.90
46029;DHT22;31763;48.180;7.904;2023-03-01T02:57:11;-2.70;99.90
46029;DHT22;31763;48.180;7.904;2023-03-01T02:59:39;-2.70;99.90
46029;DHT22;31763;48.180;7.904;2023-03-01T03:02:08;-2.60;99.90
46029;DHT22;31763;48.180;7.904;2023-03-01T03:05:14;-2.70;99.90
46029;DHT22;31763;48.180;7.904;2023-03-01T03:07:44;-2.60;99.90
46029;DHT22;31763;48.180;7.904;2023-03-01T03:10:18;-2.60;99.90
46029;DHT22;31763;48.180;7.904;2023-03-01T03:12:52;-2.40;99.90
46029;DHT22;31763;48.180;7.904;2023-03-01T03:15:27;-2.60;99.90
46029;DHT22;31763;48.180;7.904;2023-03-01T03:17:56;-2.50;99.90
46029;DHT22;31763;48.180;7.904;2023-03-01T03:20:27;-2.50;99.90
46029;DHT22;31763;48.180;7.904;2023-03-01T03:22:55;-2.60;99.90
46029;DHT22;31763;48.180;7.904;2023-03-01T03:25:24;-2.60;99.90
46029;DHT22;31763;48.180;7.904;2023-03-01T03:27:53;-2.70;99.90
46029;DHT22;31763;48.180;7.904;2023-03-01T03:30:29;-2.60;99.90
46029;DHT22;31763;48.180;7.904;2023-03-01T03:32:59;-2.40;99.90
46029;DHT22;31763;48.180;7.904;2023-03-01T03:35:28;-2.50;99.90
46029;DHT22;31763;48.180;7.904;2023-03-01T03:37:58;-2.50;99.90
46029;DHT22;31763;48.180;7.904;2023-03-01T03:40:36;-2.70;99.90
46029;DHT22;31763;48.180;7.904;2023-03-01T03:43:12;-2.60;99.90
46029;DHT22;31763;48.180;7.904;2023-03-01T03:45:41;-2.60;99.90
46029;DHT22;31763;48.180;7.904;2023-03-01T03:48:09;-2.50;99.90
46029;DHT22;31763;48.180;7.904;2023-03-01T03:50:38;-2.50;99.90
46029;DHT22;31763;48.180;7.904;2023-03-01T03:53:08;-2.60;99.90
46029;DHT22;31763;48.180;7.904;2023-03-01T03:55:39;-2.50;99.90
46029;DHT22;31763;48.180;7.904;2023-03-01T03:58:09;-2.60;99.90
46029;DHT22;31763;48.180;7.904;2023-03-01T04:00:40;-2.50;99.90
46029;DHT22;31763;48.180;7.904;2023-03-01T04:03:09;-2.50;99.90
46029;DHT22;31763;48.180;7.904;2023-03-01T04:05:39;-2.40;99.90
46029;DHT22;31763;48.180;7.904;2023-03-01T04:08:08;-2.30;99.90
46029;DHT22;31763;48.180;7.904;2023-03-01T04:10:36;-2.20;99.90
46029;DHT22;31763;48.180;7.904;2023-03-01T04:13:12;-2.30;99.90
46029;DHT22;31763;48.180;7.904;2023-03-01T04:15:41;-2.00;99.90
46029;DHT22;31763;48.180;7.904;2023-03-01T04:18:13;-2.20;99.90
46029;DHT22;31763;48.180;7.904;2023-03-01T04:20:41;-2.20;99.90
46029;DHT22;31763;48.180;7.904;2023-03-01T04:23:11;-2.20;99.90
46029;DHT22;31763;48.180;7.904;2023-03-01T04:25:46;-2.20;99.90
46029;DHT22;31763;48.180;7.904;2023-03-01T04:28:23;-2.10;99.90
46029;DHT22;31763;48.180;7.904;2023-03-01T04:30:52;-2.00;99.90
46029;DHT22;31763;48.180;7.904;2023-03-01T04:33:20;-2.00;99.90
46029;DHT22;31763;48.180;7.904;2023-03-01T04:35:48;-2.10;99.90
46029;DHT22;31763;48.180;7.904;2023-03-01T04:38:19;-1.90;99.90
46029;DHT22;31763;48.180;7.904;2023-03-01T04:40:46;-2.00;99.90
46029;DHT22;31763;48.180;7.904;2023-03-01T04:43:13;-1.70;99.90
46029;DHT22;31763;48.180;7.904;2023-03-01T04:45:41;-2.00;99.90
46029;DHT22;31763;48.180;7.904;2023-03-01T04:48:08;-2.00;99.90
46029;DHT22;31763;48.180;7.904;2023-03-01T04:50:35;-2.10;99.90
46029;DHT22;31763;48.180;7.904;2023-03-01T04:53:03;-1.90;99.90
46029;DHT22;31763;48.180;7.904;2023-03-01T04:55:29;-1.70;99.90
46029;DHT22;31763;48.180;7.904;2023-03-01T04:57:56;-1.90;99.90
46029;DHT22;31763;48.180;7.904;2023-03-01T05:00:23;-1.80;99.90
46029;DHT22;31763;48.180;7.904;2023-03-01T05:02:51;-1.80;99.90
46029;DHT22;31763;48.180;7.904;2023-03-01T05:05:25;-1.70;99.90
46029;DHT22;31763;48.180;7.904;2023-03-01T05:07:59;-1.80;99.90
46029;DHT22;31763;48.180;7.904;2023-03-01T05:10:29;-1.70;99.90
46029;DHT22;31763;48.180;7.904;2023-03-01T05:12:58;-1.90;99.90
46029;DHT22;31763;48.180;7.904;2023-03-01T05:15:30;-1.80;99.90
46029;DHT22;31763;48.180;7.904;2023-03-01T05:17:59;-1.90;99.90
46029;DHT22;31763;48.180;7.904;2023-03-01T05:20:27;-1.80;99.90
46029;DHT22;31763;48.180;7.904;2023-03-01T05:22:57;-1.70;99.90
46029;DHT22;31763;48.180;7.904;2023-03-01T05:25:26;-1.60;99.90
46029;DHT22;31763;48.180;7.904;2023-03-01T05:27:53;-1.60;99.90
46029;DHT22;31763;48.180;7.904;2023-03-01T05:30:20;-1.70;99.90
46029;DHT22;31763;48.180;7.904;2023-03-01T05:32:49;-1.70;99.90
46029;DHT22;31763;48.180;7.904;2023-03-01T05:35:22;-1.70;99.90
46029;DHT22;31763;48.180;7.904;2023-03-01T05:37:49;-1.80;99.90
46029;DHT22;31763;48.180;7.904;2023-03-01T05:40:19;-1.70;99.90
46029;DHT22;31763;48.180;7.904;2023-03-01T05:42:50;-1.60;99.90
46029;DHT22;31763;48.180;7.904;2023-03-01T05:45:20;-1.70;99.90
46029;DHT22;31763;48.180;7.904;2023-03-01T05:47:48;-1.60;99.90
46029;DHT22;31763;48.180;7.904;2023-03-01T05:50:25;-1.70;99.90
46029;DHT22;31763;48.180;7.904;2023-03-01T05:52:59;-1.60;99.90
46029;DHT22;31763;48.180;7.904;2023-03-01T05:55:35;-1.60;99.90
46029;DHT22;31763;48.180;7.904;2023-03-01T05:58:04;-1.60;99.90
46029;DHT22;31763;48.180;7.904;2023-03-01T06:00:32;-1.50;99.90
46029;DHT22;31763;48.180;7.904;2023-03-01T06:03:00;-1.40;99.90
46029;DHT22;31763;48.180;7.904;2023-03-01T06:05:28;-1.50;99.90
46029;DHT22;31763;48.180;7.904;2023-03-01T06:07:55;-1.60;99.90
46029;DHT22;31763;48.180;7.904;2023-03-01T06:10:22;-1.60;99.90
46029;DHT22;31763;48.180;7.904;2023-03-01T06:12:49;-1.50;99.90
46029;DHT22;31763;48.180;7.904;2023-03-01T06:15:16;-1.40;99.90
46029;DHT22;31763;48.180;7.904;2023-03-01T06:17:45;-1.40;99.90
46029;DHT22;31763;48.180;7.904;2023-03-01T06:20:18;-1.40;99.90
46029;DHT22;31763;48.180;7.904;2023-03-01T06:22:47;-1.40;99.90
46029;DHT22;31763;48.180;7.904;2023-03-01T06:25:18;-1.40;99.90
46029;DHT22;31763;48.180;7.904;2023-03-01T06:27:47;-1.40;99.90
46029;DHT22;31763;48.180;7.904;2023-03-01T06:30:17;-1.30;99.90
46029;DHT22;31763;48.180;7.904;2023-03-01T06:32:45;-1.30;99.90
46029;DHT22;31763;48.180;7.904;2023-03-01T06:35:13;-1.30;99.90
46029;DHT22;31763;48.180;7.904;2023-03-01T06:37:41;-1.30;99.90
46029;DHT22;31763;48.180;7.904;2023-03-01T06:40:09;-1.20;99.90
46029;DHT22;31763;48.180;7.904;2023-03-01T06:42:40;-1.20;99.90
46029;DHT22;31763;48.180;7.904;2023-03-01T06:45:10;-1.10;99.90
46029;DHT22;31763;48.180;7.904;2023-03-01T06:47:38;-0.90;99.90
46029;DHT22;31763;48.180;7.904;2023-03-01T06:50:05;-0.90;99.90
46029;DHT22;31763;48.180;7.904;2023-03-01T06:52:33;-1.10;99.90
46029;DHT22;31763;48.180;7.904;2023-03-01T06:55:00;-1.00;99.90
46029;DHT22;31763;48.180;7.904;2023-03-01T06:57:28;-1.00;99.90
46029;DHT22;31763;48.180;7.904;2023-03-01T06:59:55;-1.00;99.90
46029;DHT22;31763;48.180;7.904;2023-03-01T07:02:22;-0.90;99.90
46029;DHT22;31763;48.180;7.904;2023-03-01T07:04:50;-0.90;99.90
46029;DHT22;31763;48.180;7.904;2023-03-01T07:07:18;-0.80;99.90
46029;DHT22;31763;48.180;7.904;2023-03-01T07:09:46;-0.80;99.90
46029;DHT22;31763;48.180;7.904;2023-03-01T07:12:13;-0.80;99.90
46029;DHT22;31763;48.180;7.904;2023-03-01T07:14:40;-0.70;99.90
46029;DHT22;31763;48.180;7.904;2023-03-01T07:17:07;-0.80;99.90
46029;DHT22;31763;48.180;7.904;2023-03-01T07:19:34;-0.80;99.90
46029;DHT22;31763;48.180;7.904;2023-03-01T07:22:01;-0.70;99.90
46029;DHT22;31763;48.180;7.904;2023-03-01T07:24:27;-0.70;99.90
46029;DHT22;31763;48.180;7.904;2023-03-01T07:26:54;-0.70;99.90
46029;DHT22;31763;48.180;7.904;2023-03-01T07:29:21;-0.60;99.90
46029;DHT22;31763;48.180;7.904;2023-03-01T07:31:48;-0.60;99.90
46029;DHT22;31763;48.180;7.904;2023-03-01T07:34:15;-0.60;99.90
46029;DHT22;31763;48.180;7.904;2023-03-01T07:36:42;-0.50;99.90
46029;DHT22;31763;48.180;7.904;2023-03-01T07:39:10;-0.50;99.90
46029;DHT22;31763;48.180;7.904;2023-03-01T07:41:37;-0.40;99.90
46029;DHT22;31763;48.180;7.904;2023-03-01T07:44:04;-0.30;99.90
46029;DHT22;31763;48.180;7.904;2023-03-01T07:46:31;-0.40;99.90
46029;DHT22;31763;48.180;7.904;2023-03-01T07:48:59;-0.30;99.90
46029;DHT22;31763;48.180;7.904;2023-03-01T07:51:26;-0.30;99.90
46029;DHT22;31763;48.180;7.904;2023-03-01T07:53:53;-0.30;99.90
46029;DHT22;31763;48.180;7.904;2023-03-01T07:56:20;-0.20;99.90
46029;DHT22;31763;48.180;7.904;2023-03-01T07:58:48;-0.10;99.90
46029;DHT22;31763;48.180;7.904;2023-03-01T08:01:18;-0.10;99.90
46029;DHT22;31763;48.180;7.904;2023-03-01T08:03:46;-0.10;99.90
46029;DHT22;31763;48.180;7.904;2023-03-01T08:06:15;-0.10;99.90
46029;DHT22;31763;48.180;7.904;2023-03-01T08:08:43;0.00;99.90
46029;DHT22;31763;48.180;7.904;2023-03-01T08:11:14;0.20;99.90
46029;DHT22;31763;48.180;7.904;2023-03-01T08:13:42;0.30;99.90
46029;DHT22;31763;48.180;7.904;2023-03-01T08:16:12;0.30;99.90
46029;DHT22;31763;48.180;7.904;2023-03-01T08:18:41;0.30;99.90
46029;DHT22;31763;48.180;7.904;2023-03-01T08:21:16;0.30;99.90
46029;DHT22;31763;48.180;7.904;2023-03-01T08:23:44;0.30;99.90
46029;DHT22;31763;48.180;7.904;2023-03-01T08:26:14;0.50;99.90
46029;DHT22;31763;48.180;7.904;2023-03-01T08:28:44;0.40;99.90
46029;DHT22;31763;48.180;7.904;2023-03-01T08:33:57;0.40;99.90
46029;DHT22;31763;48.180;7.904;2023-03-01T08:36:32;0.60;99.90
46029;DHT22;31763;48.180;7.904;2023-03-01T08:39:09;0.50;99.90
46029;DHT22;31763;48.180;7.904;2023-03-01T08:41:41;0.60;99.90
46029;DHT22;31763;48.180;7.904;2023-03-01T08:44:15;0.80;99.90
46029;DHT22;31763;48.180;7.904;2023-03-01T08:46:45;0.70;99.90
46029;DHT22;31763;48.180;7.904;2023-03-01T08:49:19;0.90;99.90
46029;DHT22;31763;48.180;7.904;2023-03-01T08:51:51;0.80;99.90
46029;DHT22;31763;48.180;7.904;2023-03-01T08:54:24;0.90;99.90
46029;DHT22;31763;48.180;7.904;2023-03-01T08:56:51;0.90;99.90
46029;DHT22;31763;48.180;7.904;2023-03-01T08:59:18;0.80;99.90
46029;DHT22;31763;48.180;7.904;2023-03-01T09:01:45;0.80;99.90
46029;DHT22;31763;48.180;7.904;2023-03-01T09:04:14;1.10;99.90
46029;DHT22;31763;48.180;7.904;2023-03-01T09:06:41;0.90;99.90
46029;DHT22;31763;48.180;7.904;2023-03-01T09:09:14;1.00;99.90
46029;DHT22;31763;48.180;7.904;2023-03-01T09:11:45;0.90;99.90
46029;DHT22;31763;48.180;7.904;2023-03-01T09:14:13;0.80;99.90
46029;DHT22;31763;48.180;7.904;2023-03-01T09:16:40;0.90;99.90
46029;DHT22;31763;48.180;7.904;2023-03-01T09:19:07;1.10;99.90
46029;DHT22;31763;48.180;7.904;2023-03-01T09:21:34;1.10;99.90
46029;DHT22;31763;48.180;7.904;2023-03-01T09:24:14;1.20;99.90
46029;DHT22;31763;48.180;7.904;2023-03-01T09:26:42;1.20;99.90
46029;DHT22;31763;48.180;7.904;2023-03-01T09:29:09;1.30;99.90
46029;DHT22;31763;48.180;7.904;2023-03-01T09:31:37;1.20;99.90
46029;DHT22;31763;48.180;7.904;2023-03-01T09:34:04;1.40;99.90
46029;DHT22;31763;48.180;7.904;2023-03-01T09:36:32;1.70;99.90
46029;DHT22;31763;48.180;7.904;2023-03-01T09:39:00;1.60;99.90
46029;DHT22;31763;48.180;7.904;2023-03-01T09:41:43;1.70;99.90
46029;DHT22;31763;48.180;7.904;2023-03-01T09:44:43;1.80;99.90
46029;DHT22;31763;48.180;7.904;2023-03-01T09:47:18;1.80;99.90
46029;DHT22;31763;48.180;7.904;2023-03-01T09:50:13;1.90;99.90
46029;DHT22;31763;48.180;7.904;2023-03-01T09:52:54;2.30;99.90
46029;DHT22;31763;48.180;7.904;2023-03-01T10:01:33;2.60;99.90
46029;DHT22;31763;48.180;7.904;2023-03-01T10:04:27;2.30;99.90
46029;DHT22;31763;48.180;7.904;2023-03-01T10:09:42;2.50;99.90
46029;DHT22;31763;48.180;7.904;2023-03-01T10:12:16;2.40;99.90
46029;DHT22;31763;48.180;7.904;2023-03-01T10:15:05;2.40;99.90
46029;DHT22;31763;48.180;7.904;2023-03-01T10:17:46;2.50;99.90
46029;DHT22;31763;48.180;7.904;2023-03-01T10:20:33;2.70;99.90
46029;DHT22;31763;48.180;7.904;2023-03-01T10:23:09;2.70;99.90
46029;DHT22;31763;48.180;7.904;2023-03-01T10:29:05;2.80;99.90
46029;DHT22;31763;48.180;7.904;2023-03-01T10:31:51;2.80;99.90
46029;DHT22;31763;48.180;7.904;2023-03-01T10:34:29;3.10;99.90
46029;DHT22;31763;48.180;7.904;2023-03-01T10:37:15;2.90;99.90
46029;DHT22;31763;48.180;7.904;2023-03-01T10:40:05;2.90;99.90
46029;DHT22;31763;48.180;7.904;2023-03-01T10:42:48;3.00;99.90
46029;DHT22;31763;48.180;7.904;2023-03-01T10:45:37;3.10;99.90
46029;DHT22;31763;48.180;7.904;2023-03-01T10:48:23;3.20;99.90
46029;DHT22;31763;48.180;7.904;2023-03-01T10:53:35;2.90;99.90
46029;DHT22;31763;48.180;7.904;2023-03-01T10:56:07;2.60;99.90
46029;DHT22;31763;48.180;7.904;2023-03-01T10:58:39;2.70;99.90
46029;DHT22;31763;48.180;7.904;2023-03-01T11:01:24;2.60;99.90
46029;DHT22;31763;48.180;7.904;2023-03-01T11:06:35;3.00;99.90
46029;DHT22;31763;48.180;7.904;2023-03-01T11:09:20;3.50;99.90
46029;DHT22;31763;48.180;7.904;2023-03-01T11:11:56;4.00;99.90
46029;DHT22;31763;48.180;7.904;2023-03-01T11:14:26;4.20;99.90
46029;DHT22;31763;48.180;7.904;2023-03-01T11:17:10;4.30;99.90
46029;DHT22;31763;48.180;7.904;2023-03-01T11:19:40;4.30;99.90
46029;DHT22;31763;48.180;7.904;2023-03-01T11:22:19;4.30;99.90
46029;DHT22;31763;48.180;7.904;2023-03-01T11:24:49;4.40;99.90
46029;DHT22;31763;48.180;7.904;2023-03-01T11:27:39;4.30;99.90
46029;DHT22;31763;48.180;7.904;2023-03-01T11:36:39;5.20;99.90
46029;DHT22;31763;48.180;7.904;2023-03-01T11:39:28;4.90;99.90
46029;DHT22;31763;48.180;7.904;2023-03-01T11:42:11;5.20;99.90
46029;DHT22;31763;48.180;7.904;2023-03-01T11:44:47;5.60;99.90
46029;DHT22;31763;48.180;7.904;2023-03-01T11:48:22;5.70;99.90
46029;DHT22;31763;48.180;7.904;2023-03-01T11:50:42;5.50;99.90
46029;DHT22;31763;48.180;7.904;2023-03-01T11:53:37;5.90;99.90
46029;DHT22;31763;48.180;7.904;2023-03-01T11:56:38;6.10;99.90
46029;DHT22;31763;48.180;7.904;2023-03-01T12:04:57;5.90;99.90
46029;DHT22;31763;48.180;7.904;2023-03-01T12:20:21;6.40;99.90
46029;DHT22;31763;48.180;7.904;2023-03-01T12:23:11;6.20;99.90
46029;DHT22;31763;48.180;7.904;2023-03-01T12:51:24;5.70;99.90
46029;DHT22;31763;48.180;7.904;2023-03-01T12:53:55;5.80;99.90
46029;DHT22;31763;48.180;7.904;2023-03-01T12:56:28;6.10;99.90
46029;DHT22;31763;48.180;7.904;2023-03-01T12:59:26;6.40;99.90
46029;DHT22;31763;48.180;7.904;2023-03-01T13:02:14;6.60;99.90
46029;DHT22;31763;48.180;7.904;2023-03-01T13:10:52;7.00;99.90
46029;DHT22;31763;48.180;7.904;2023-03-01T13:13:25;6.80;99.90
46029;DHT22;31763;48.180;7.904;2023-03-01T13:15:54;7.00;99.90
46029;DHT22;31763;48.180;7.904;2023-03-01T13:20:55;6.90;99.90
46029;DHT22;31763;48.180;7.904;2023-03-01T13:23:29;7.30;99.90
46029;DHT22;31763;48.180;7.904;2023-03-01T13:26:16;7.40;99.90
46029;DHT22;31763;48.180;7.904;2023-03-01T13:33:58;8.60;99.90
46029;DHT22;31763;48.180;7.904;2023-03-01T13:38:59;9.00;99.90
46029;DHT22;31763;48.180;7.904;2023-03-01T13:44:20;8.90;99.90
46029;DHT22;31763;48.180;7.904;2023-03-01T13:46:57;9.00;99.90
46029;DHT22;31763;48.180;7.904;2023-03-01T13:49:29;9.20;99.90
46029;DHT22;31763;48.180;7.904;2023-03-01T13:52:41;9.30;99.90
46029;DHT22;31763;48.180;7.904;2023-03-01T13:55:21;9.50;99.90
46029;DHT22;31763;48.180;7.904;2023-03-01T13:57:53;9.70;99.90
46029;DHT22;31763;48.180;7.904;2023-03-01T14:05:33;9.50;99.90
46029;DHT22;31763;48.180;7.904;2023-03-01T14:08:00;9.30;99.90
46029;DHT22;31763;48.180;7.904;2023-03-01T14:10:35;8.80;99.90
46029;DHT22;31763;48.180;7.904;2023-03-01T14:14:09;8.80;99.90
46029;DHT22;31763;48.180;7.904;2023-03-01T14:25:02;9.30;99.90
46029;DHT22;31763;48.180;7.904;2023-03-01T14:27:35;9.10;99.90
46029;DHT22;31763;48.180;7.904;2023-03-01T14:30:17;8.90;99.90
46029;DHT22;31763;48.180;7.904;2023-03-01T14:33:01;8.80;99.90
46029;DHT22;31763;48.180;7.904;2023-03-01T14:35:34;8.60;99.90
46029;DHT22;31763;48.180;7.904;2023-03-01T14:38:03;8.50;99.90
46029;DHT22;31763;48.180;7.904;2023-03-01T14:40:35;8.60;99.90
46029;DHT22;31763;48.180;7.904;2023-03-01T14:43:10;9.00;99.90
46029;DHT22;31763;48.180;7.904;2023-03-01T14:45:38;9.30;99.90
46029;DHT22;31763;48.180;7.904;2023-03-01T14:48:07;9.10;99.90
46029;DHT22;31763;48.180;7.904;2023-03-01T14:50:35;8.60;99.90
46029;DHT22;31763;48.180;7.904;2023-03-01T14:53:16;8.60;99.90
46029;DHT22;31763;48.180;7.904;2023-03-01T14:55:56;8.70;99.90
46029;DHT22;31763;48.180;7.904;2023-03-01T14:58:28;9.00;99.90
46029;DHT22;31763;48.180;7.904;2023-03-01T15:00:58;8.80;99.90
46029;DHT22;31763;48.180;7.904;2023-03-01T15:06:22;8.40;99.90
46029;DHT22;31763;48.180;7.904;2023-03-01T15:08:52;8.40;99.90
46029;DHT22;31763;48.180;7.904;2023-03-01T15:11:27;8.40;99.90
46029;DHT22;31763;48.180;7.904;2023-03-01T15:13:57;8.60;99.90
46029;DHT22;31763;48.180;7.904;2023-03-01T15:16:32;8.40;99.90
46029;DHT22;31763;48.180;7.904;2023-03-01T15:19:02;8.50;99.90
46029;DHT22;31763;48.180;7.904;2023-03-01T15:21:33;8.70;99.90
46029;DHT22;31763;48.180;7.904;2023-03-01T15:24:16;9.00;99.90
46029;DHT22;31763;48.180;7.904;2023-03-01T15:26:58;9.20;99.90
46029;DHT22;31763;48.180;7.904;2023-03-01T15:29:33;9.20;99.90
46029;DHT22;31763;48.180;7.904;2023-03-01T15:35:32;9.40;99.90
46029;DHT22;31763;48.180;7.904;2023-03-01T15:41:26;9.30;99.90
46029;DHT22;31763;48.180;7.904;2023-03-01T15:44:14;9.10;99.90
46029;DHT22;31763;48.180;7.904;2023-03-01T15:46:46;8.90;99.90
46029;DHT22;31763;48.180;7.904;2023-03-01T15:52:39;8.40;99.90
46029;DHT22;31763;48.180;7.904;2023-03-01T15:57:44;7.40;99.90
46029;DHT22;31763;48.180;7.904;2023-03-01T16:00:12;7.70;99.90
46029;DHT22;31763;48.180;7.904;2023-03-01T16:02:41;7.70;99.90
46029;DHT22;31763;48.180;7.904;2023-03-01T16:07:49;7.50;99.90
46029;DHT22;31763;48.180;7.904;2023-03-01T16:10:17;7.20;99.90
46029;DHT22;31763;48.180;7.904;2023-03-01T16:12:46;7.10;99.90
46029;DHT22;31763;48.180;7.904;2023-03-01T16:15:25;7.20;99.90
46029;DHT22;31763;48.180;7.904;2023-03-01T16:17:58;6.80;99.90
46029;DHT22;31763;48.180;7.904;2023-03-01T16:20:28;6.80;99.90
46029;DHT22;31763;48.180;7.904;2023-03-01T16:23:05;7.00;99.90
46029;DHT22;31763;48.180;7.904;2023-03-01T16:25:38;6.50;99.90
46029;DHT22;31763;48.180;7.904;2023-03-01T16:28:08;6.50;99.90
46029;DHT22;31763;48.180;7.904;2023-03-01T16:30:39;6.20;99.90
46029;DHT22;31763;48.180;7.904;2023-03-01T16:33:18;5.90;99.90
46029;DHT22;31763;48.180;7.904;2023-03-01T16:36:00;5.60;99.90
46029;DHT22;31763;48.180;7.904;2023-03-01T16:38:32;5.40;99.90
46029;DHT22;31763;48.180;7.904;2023-03-01T16:40:58;5.20;99.90
46029;DHT22;31763;48.180;7.904;2023-03-01T16:43:26;5.00;99.90
46029;DHT22;31763;48.180;7.904;2023-03-01T16:45:52;4.60;99.90
46029;DHT22;31763;48.180;7.904;2023-03-01T16:48:19;4.40;99.90
46029;DHT22;31763;48.180;7.904;2023-03-01T16:50:56;4.30;99.90
46029;DHT22;31763;48.180;7.904;2023-03-01T16:53:27;4.20;99.90
46029;DHT22;31763;48.180;7.904;2023-03-01T16:55:58;4.30;99.90
46029;DHT22;31763;48.180;7.904;2023-03-01T16:58:25;4.10;99.90
46029;DHT22;31763;48.180;7.904;2023-03-01T17:00:53;4.20;99.90
46029;DHT22;31763;48.180;7.904;2023-03-01T17:03:21;4.20;99.90
46029;DHT22;31763;48.180;7.904;2023-03-01T17:05:49;4.30;99.90
46029;DHT22;31763;48.180;7.904;2023-03-01T17:08:16;4.40;99.90
46029;DHT22;31763;48.180;7.904;2023-03-01T17:10:43;4.60;99.90
46029;DHT22;31763;48.180;7.904;2023-03-01T17:13:10;4.50;99.90
46029;DHT22;31763;48.180;7.904;2023-03-01T17:15:39;4.60;99.90
46029;DHT22;31763;48.180;7.904;2023-03-01T17:18:07;4.60;99.90
46029;DHT22;31763;48.180;7.904;2023-03-01T17:20:35;4.50;99.90
46029;DHT22;31763;48.180;7.904;2023-03-01T17:23:02;4.40;99.90
46029;DHT22;31763;48.180;7.904;2023-03-01T17:25:29;4.50;99.90
46029;DHT22;31763;48.180;7.904;2023-03-01T17:27:56;4.70;99.90
46029;DHT22;31763;48.180;7.904;2023-03-01T17:30:23;4.60;99.90
46029;DHT22;31763;48.180;7.904;2023-03-01T17:32:50;4.70;99.90
46029;DHT22;31763;48.180;7.904;2023-03-01T17:35:21;4.50;99.90
46029;DHT22;31763;48.180;7.904;2023-03-01T17:37:48;4.50;99.90
46029;DHT22;31763;48.180;7.904;2023-03-01T17:40:15;4.40;99.90
46029;DHT22;31763;48.180;7.904;2023-03-01T17:42:42;4.20;99.90
46029;DHT22;31763;48.180;7.904;2023-03-01T17:45:09;3.70;99.90
46029;DHT22;31763;48.180;7.904;2023-03-01T17:47:36;3.50;99.90
46029;DHT22;31763;48.180;7.904;2023-03-01T17:50:03;3.30;99.90
46029;DHT22;31763;48.180;7.904;2023-03-01T17:52:31;2.90;99.90
46029;DHT22;31763;48.180;7.904;2023-03-01T17:54:58;2.80;99.90
46029;DHT22;31763;48.180;7.904;2023-03-01T17:57:25;2.70;99.90
46029;DHT22;31763;48.180;7.904;2023-03-01T17:59:52;2.60;99.90
46029;DHT22;31763;48.180;7.904;2023-03-01T18:02:18;2.80;99.90
46029;DHT22;31763;48.180;7.904;2023-03-01T18:04:46;2.50;99.90
46029;DHT22;31763;48.180;7.904;2023-03-01T18:07:13;2.40;99.90
46029;DHT22;31763;48.180;7.904;2023-03-01T18:09:39;2.40;99.90
46029;DHT22;31763;48.180;7.904;2023-03-01T18:12:06;2.20;99.90
46029;DHT22;31763;48.180;7.904;2023-03-01T18:14:33;2.40;99.90
46029;DHT22;31763;48.180;7.904;2023-03-01T18:17:00;2.30;99.90
46029;DHT22;31763;48.180;7.904;2023-03-01T18:19:32;2.40;99.90